sensor_id;sensor_type;location;lat;lon;timestamp;temperature;humidity
4556;DHT22;2290;48.674;9.018;2023-07-22T00:00:42;16.60;99.90
4556;DHT22;2290;48.674;9.018;2023-07-22T00:03:08;16.60;99.90
4556;DHT22;2290;48.674;9.018;2023-07-22T00:05:34;16.60;99.90
4556;DHT22;2290;48.674;9.018;2023-07-22T00:07:59;16.50;99.90
4556;DHT22;2290;48.674;9.018;2023-07-22T00:10:25;16.50;99.90
4556;DHT22;2290;48.674;9.018;2023-07-22T00:12:50;16.50;99.90
4556;DHT22;2290;48.674;9.018;2023-07-22T00:15:16;16.60;99.90
4556;DHT22;2290;48.674;9.018;2023-07-22T00:17:41;16.50;99.90
4556;DHT22;2290;48.674;9.018;2023-07-22T00:20:08;16.50;99.90
4556;DHT22;2290;48.674;9.018;2023-07-22T00:22:37;16.50;99.90
4556;DHT22;2290;48.674;9.018;2023-07-22T00:25:03;16.50;99.90
4556;DHT22;2290;48.674;9.018;2023-07-22T00:27:29;16.50;99.90
4556;DHT22;2290;48.674;9.018;2023-07-22T00:29:55;16.50;99.90
4556;DHT22;2290;48.674;9.018;2023-07-22T00:32:20;16.40;99.90
4556;DHT22;2290;48.674;9.018;2023-07-22T00:34:46;16.40;99.90
4556;DHT22;2290;48.674;9.018;2023-07-22T00:37:11;16.50;99.90
4556;DHT22;2290;48.674;9.018;2023-07-22T00:39:37;16.40;99.90
4556;DHT22;2290;48.674;9.018;2023-07-22T00:42:02;16.40;99.90
4556;DHT22;2290;48.674;9.018;2023-07-22T00:44:28;16.30;99.90
4556;DHT22;2290;48.674;9.018;2023-07-22T00:46:56;16.30;99.90
4556;DHT22;2290;48.674;9.018;2023-07-22T00:49:23;16.20;99.90
4556;DHT22;2290;48.674;9.018;2023-07-22T00:51:51;16.30;99.90
4556;DHT22;2290;48.674;9.018;2023-07-22T00:54:16;16.30;99.90
4556;DHT22;2290;48.674;9.018;2023-07-22T00:56:43;16.20;99.90
4556;DHT22;2290;48.674;9.018;2023-07-22T00:59:10;16.20;99.90
4556;DHT22;2290;48.674;9.018;2023-07-22T01:01:36;16.20;99.90
4556;DHT22;2290;48.674;9.018;2023-07-22T01:04:01;16.10;99.90
4556;DHT22;2290;48.674;9.018;2023-07-22T01:06:29;16.20;99.90
4556;DHT22;2290;48.674;9.018;2023-07-22T01:08:57;16.10;99.90
4556;DHT22;2290;48.674;9.018;2023-07-22T01:11:23;16.10;99.90
4556;DHT22;2290;48.674;9.018;2023-07-22T01:13:49;16.10;99.90
4556;DHT22;2290;48.674;9.018;2023-07-22T01:16:15;16.20;99.90
4556;DHT22;2290;48.674;9.018;2023-07-22T01:18:41;16.10;99.90
4556;DHT22;2290;48.674;9.018;2023-07-22T01:21:08;16.10;99.90
4556;DHT22;2290;48.674;9.018;2023-07-22T01:23:34;16.10;99.90
4556;DHT22;2290;48.674;9.018;2023-07-22T01:26:02;16.00;99.90
4556;DHT22;2290;48.674;9.018;2023-07-22T01:28:29;16.00;99.90
4556;DHT22;2290;48.674;9.018;2023-07-22T01:30:54;15.90;99.90
4556;DHT22;2290;48.674;9.018;2023-07-22T01:33:20;15.90;99.90
4556;DHT22;2290;48.674;9.018;2023-07-22T01:35:46;15.90;99.90
4556;DHT22;2290;48.674;9.018;2023-07-22T01:38:11;15.90;99.90
4556;DHT22;2290;48.674;9.018;2023-07-22T01:40:38;16.00;99.90
4556;DHT22;2290;48.674;9.018;2023-07-22T01:43:04;16.00;99.90
4556;DHT22;2290;48.674;9.018;2023-07-22T01:45:29;15.90;99.90
4556;DHT22;2290;48.674;9.018;2023-07-22T01:47:55;15.90;99.90
4556;DHT22;2290;48.674;9.018;2023-07-22T01:50:20;15.90;99.90
4556;DHT22;2290;48.674;9.018;2023-07-22T01:52:46;15.80;99.90
4556;DHT22;2290;48.674;9.018;2023-07-22T01:55:12;15.90;99.90
4556;DHT22;2290;48.674;9.018;2023-07-22T01:57:41;15.90;99.90
4556;DHT22;2290;48.674;9.018;2023-07-22T02:00:07;16.00;99.90
4556;DHT22;2290;48.674;9.018;2023-07-22T02:02:36;16.00;99.90
4556;DHT22;2290;48.674;9.018;2023-07-22T02:05:01;16.00;99.90
4556;DHT22;2290;48.674;9.018;2023-07-22T02:07:27;15.90;99.90
4556;DHT22;2290;48.674;9.018;2023-07-22T02:09:54;15.90;99.90
4556;DHT22;2290;48.674;9.018;2023-07-22T02:12:20;15.90;99.90
4556;DHT22;2290;48.674;9.018;2023-07-22T02:14:45;15.80;99.90
4556;DHT22;2290;48.674;9.018;2023-07-22T02:17:11;15.80;99.90
4556;DHT22;2290;48.674;9.018;2023-07-22T02:19:36;15.80;99.90
4556;DHT22;2290;48.674;9.018;2023-07-22T02:22:06;15.90;99.90
4556;DHT22;2290;48.674;9.018;2023-07-22T02:24:31;15.80;99.90
4556;DHT22;2290;48.674;9.018;2023-07-22T02:26:57;15.80;99.90
4556;DHT22;2290;48.674;9.018;2023-07-22T02:29:23;15.80;99.90
4556;DHT22;2290;48.674;9.018;2023-07-22T02:31:48;15.80;99.90
4556;DHT22;2290;48.674;9.018;2023-07-22T02:34:14;15.90;99.90
4556;DHT22;2290;48.674;9.018;2023-07-22T02:36:39;15.90;99.90
4556;DHT22;2290;48.674;9.018;2023-07-22T02:39:06;15.80;99.90
4556;DHT22;2290;48.674;9.018;2023-07-22T02:41:36;15.90;99.90
4556;DHT22;2290;48.674;9.018;2023-07-22T02:44:02;15.80;99.90
4556;DHT22;2290;48.674;9.018;2023-07-22T02:46:28;15.80;99.90
4556;DHT22;2290;48.674;9.018;2023-07-22T02:48:54;15.80;99.90
4556;DHT22;2290;48.674;9.018;2023-07-22T02:51:20;15.80;99.90
4556;DHT22;2290;48.674;9.018;2023-07-22T02:53:46;15.80;99.90
4556;DHT22;2290;48.674;9.018;2023-07-22T02:56:12;15.80;99.90
4556;DHT22;2290;48.674;9.018;2023-07-22T02:58:38;15.80;99.90
4556;DHT22;2290;48.674;9.018;2023-07-22T03:01:04;15.70;99.90
4556;DHT22;2290;48.674;9.018;2023-07-22T03:03:30;15.70;99.90
4556;DHT22;2290;48.674;9.018;2023-07-22T03:05:59;15.70;99.90
4556;DHT22;2290;48.674;9.018;2023-07-22T03:08:24;15.60;99.90
4556;DHT22;2290;48.674;9.018;2023-07-22T03:10:50;15.60;99.90
4556;DHT22;2290;48.674;9.018;2023-07-22T03:13:16;15.60;99.90
4556;DHT22;2290;48.674;9.018;2023-07-22T03:15:42;15.50;99.90
4556;DHT22;2290;48.674;9.018;2023-07-22T03:18:11;15.50;99.90
4556;DHT22;2290;48.674;9.018;2023-07-22T03:20:37;15.40;99.90
4556;DHT22;2290;48.674;9.018;2023-07-22T03:23:06;15.40;99.90
4556;DHT22;2290;48.674;9.018;2023-07-22T03:25:34;15.40;99.90
4556;DHT22;2290;48.674;9.018;2023-07-22T03:28:03;15.40;99.90
4556;DHT22;2290;48.674;9.018;2023-07-22T03:30:29;15.40;99.90
4556;DHT22;2290;48.674;9.018;2023-07-22T03:32:55;15.40;99.90
4556;DHT22;2290;48.674;9.018;2023-07-22T03:35:21;15.30;99.90
4556;DHT22;2290;48.674;9.018;2023-07-22T03:37:46;15.30;99.90
4556;DHT22;2290;48.674;9.018;2023-07-22T03:40:12;15.30;99.90
4556;DHT22;2290;48.674;9.018;2023-07-22T03:42:50;15.20;99.90
4556;DHT22;2290;48.674;9.018;2023-07-22T03:45:17;15.20;99.90
4556;DHT22;2290;48.674;9.018;2023-07-22T03:47:45;15.20;99.90
4556;DHT22;2290;48.674;9.018;2023-07-22T03:50:11;15.20;99.90
4556;DHT22;2290;48.674;9.018;2023-07-22T03:52:37;15.20;99.90
4556;DHT22;2290;48.674;9.018;2023-07-22T03:55:03;15.10;99.90
4556;DHT22;2290;48.674;9.018;2023-07-22T03:57:29;15.10;99.90
4556;DHT22;2290;48.674;9.018;2023-07-22T03:59:55;15.20;99.90
4556;DHT22;2290;48.674;9.018;2023-07-22T04:02:21;15.20;99.90
4556;DHT22;2290;48.674;9.018;2023-07-22T04:04:47;15.20;99.90
4556;DHT22;2290;48.674;9.018;2023-07-22T04:07:12;15.20;99.90
4556;DHT22;2290;48.674;9.018;2023-07-22T04:09:38;15.20;99.90
4556;DHT22;2290;48.674;9.018;2023-07-22T04:12:04;15.10;99.90
4556;DHT22;2290;48.674;9.018;2023-07-22T04:14:30;15.10;99.90
4556;DHT22;2290;48.674;9.018;2023-07-22T04:16:57;15.20;99.90
4556;DHT22;2290;48.674;9.018;2023-07-22T04:19:24;15.30;99.90
4556;DHT22;2290;48.674;9.018;2023-07-22T04:21:49;15.20;99.90
4556;DHT22;2290;48.674;9.018;2023-07-22T04:24:15;15.30;99.90
4556;DHT22;2290;48.674;9.018;2023-07-22T04:26:42;15.30;99.90
4556;DHT22;2290;48.674;9.018;2023-07-22T04:29:08;15.40;99.90
4556;DHT22;2290;48.674;9.018;2023-07-22T04:31:33;15.40;99.90
4556;DHT22;2290;48.674;9.018;2023-07-22T04:34:00;15.40;99.90
4556;DHT22;2290;48.674;9.018;2023-07-22T04:36:26;15.50;99.90
4556;DHT22;2290;48.674;9.018;2023-07-22T04:38:52;15.60;99.90
4556;DHT22;2290;48.674;9.018;2023-07-22T04:41:19;15.50;99.90
4556;DHT22;2290;48.674;9.018;2023-07-22T04:43:46;15.50;99.90
4556;DHT22;2290;48.674;9.018;2023-07-22T04:46:12;15.50;99.90
4556;DHT22;2290;48.674;9.018;2023-07-22T04:48:38;15.50;99.90
4556;DHT22;2290;48.674;9.018;2023-07-22T04:51:04;15.50;99.90
4556;DHT22;2290;48.674;9.018;2023-07-22T04:53:29;15.60;99.90
4556;DHT22;2290;48.674;9.018;2023-07-22T04:55:55;15.60;99.90
4556;DHT22;2290;48.674;9.018;2023-07-22T04:58:21;15.60;99.90
4556;DHT22;2290;48.674;9.018;2023-07-22T05:00:46;15.60;99.90
4556;DHT22;2290;48.674;9.018;2023-07-22T05:03:13;15.70;99.90
4556;DHT22;2290;48.674;9.018;2023-07-22T05:05:39;15.80;99.90
4556;DHT22;2290;48.674;9.018;2023-07-22T05:08:05;15.80;99.90
4556;DHT22;2290;48.674;9.018;2023-07-22T05:10:33;15.90;99.90
4556;DHT22;2290;48.674;9.018;2023-07-22T05:12:59;15.90;99.90
4556;DHT22;2290;48.674;9.018;2023-07-22T05:15:26;15.90;99.90
4556;DHT22;2290;48.674;9.018;2023-07-22T05:17:52;15.80;99.90
4556;DHT22;2290;48.674;9.018;2023-07-22T05:20:19;15.90;99.90
4556;DHT22;2290;48.674;9.018;2023-07-22T05:22:45;16.00;99.90
4556;DHT22;2290;48.674;9.018;2023-07-22T05:25:12;16.00;99.90
4556;DHT22;2290;48.674;9.018;2023-07-22T05:27:40;16.10;99.90
4556;DHT22;2290;48.674;9.018;2023-07-22T05:30:06;16.10;99.90
4556;DHT22;2290;48.674;9.018;2023-07-22T05:32:32;16.10;99.90
4556;DHT22;2290;48.674;9.018;2023-07-22T05:34:57;16.20;99.90
4556;DHT22;2290;48.674;9.018;2023-07-22T05:37:24;16.30;99.90
4556;DHT22;2290;48.674;9.018;2023-07-22T05:39:50;16.30;99.90
4556;DHT22;2290;48.674;9.018;2023-07-22T05:42:16;16.40;99.90
4556;DHT22;2290;48.674;9.018;2023-07-22T05:44:42;16.40;99.90
4556;DHT22;2290;48.674;9.018;2023-07-22T05:47:08;16.40;99.90
4556;DHT22;2290;48.674;9.018;2023-07-22T05:49:34;16.40;99.90
4556;DHT22;2290;48.674;9.018;2023-07-22T05:51:59;16.40;99.90
4556;DHT22;2290;48.674;9.018;2023-07-22T05:54:26;16.40;99.90
4556;DHT22;2290;48.674;9.018;2023-07-22T05:56:52;16.40;99.90
4556;DHT22;2290;48.674;9.018;2023-07-22T05:59:17;16.40;99.90
4556;DHT22;2290;48.674;9.018;2023-07-22T06:01:43;16.50;99.90
4556;DHT22;2290;48.674;9.018;2023-07-22T06:04:09;16.60;99.90
4556;DHT22;2290;48.674;9.018;2023-07-22T06:06:35;16.60;99.90
4556;DHT22;2290;48.674;9.018;2023-07-22T06:09:00;16.70;99.90
4556;DHT22;2290;48.674;9.018;2023-07-22T06:11:27;16.80;99.90
4556;DHT22;2290;48.674;9.018;2023-07-22T06:13:54;17.00;99.90
4556;DHT22;2290;48.674;9.018;2023-07-22T06:16:22;17.00;99.90
4556;DHT22;2290;48.674;9.018;2023-07-22T06:18:48;17.10;99.90
4556;DHT22;2290;48.674;9.018;2023-07-22T06:21:13;17.10;99.90
4556;DHT22;2290;48.674;9.018;2023-07-22T06:23:39;17.10;99.90
4556;DHT22;2290;48.674;9.018;2023-07-22T06:26:04;17.10;99.90
4556;DHT22;2290;48.674;9.018;2023-07-22T06:28:30;17.20;99.90
4556;DHT22;2290;48.674;9.018;2023-07-22T06:30:57;17.40;99.90
4556;DHT22;2290;48.674;9.018;2023-07-22T06:33:23;17.30;99.90
4556;DHT22;2290;48.674;9.018;2023-07-22T06:35:48;17.40;99.90
4556;DHT22;2290;48.674;9.018;2023-07-22T06:38:14;17.50;99.90
4556;DHT22;2290;48.674;9.018;2023-07-22T06:40:40;17.50;99.90
4556;DHT22;2290;48.674;9.018;2023-07-22T06:43:06;17.50;99.90
4556;DHT22;2290;48.674;9.018;2023-07-22T06:45:32;17.70;99.90
4556;DHT22;2290;48.674;9.018;2023-07-22T06:47:59;17.70;99.90
4556;DHT22;2290;48.674;9.018;2023-07-22T06:50:25;17.80;99.90
4556;DHT22;2290;48.674;9.018;2023-07-22T06:52:50;17.90;99.90
4556;DHT22;2290;48.674;9.018;2023-07-22T06:55:16;17.90;99.90
4556;DHT22;2290;48.674;9.018;2023-07-22T06:57:41;18.10;99.90
4556;DHT22;2290;48.674;9.018;2023-07-22T07:00:08;18.20;99.90
4556;DHT22;2290;48.674;9.018;2023-07-22T07:02:35;18.20;99.90
4556;DHT22;2290;48.674;9.018;2023-07-22T07:05:02;18.30;99.90
4556;DHT22;2290;48.674;9.018;2023-07-22T07:07:27;18.40;99.90
4556;DHT22;2290;48.674;9.018;2023-07-22T07:09:53;18.40;99.90
4556;DHT22;2290;48.674;9.018;2023-07-22T07:12:18;18.40;99.90
4556;DHT22;2290;48.674;9.018;2023-07-22T07:14:44;18.50;99.90
4556;DHT22;2290;48.674;9.018;2023-07-22T07:17:10;18.60;99.90
4556;DHT22;2290;48.674;9.018;2023-07-22T07:19:35;18.70;99.90
4556;DHT22;2290;48.674;9.018;2023-07-22T07:22:02;18.80;99.90
4556;DHT22;2290;48.674;9.018;2023-07-22T07:24:28;18.80;99.90
4556;DHT22;2290;48.674;9.018;2023-07-22T07:26:57;18.80;99.90
4556;DHT22;2290;48.674;9.018;2023-07-22T07:29:22;18.90;99.90
4556;DHT22;2290;48.674;9.018;2023-07-22T07:31:48;19.10;99.90
4556;DHT22;2290;48.674;9.018;2023-07-22T07:34:14;19.20;99.90
4556;DHT22;2290;48.674;9.018;2023-07-22T07:36:39;19.20;99.90
4556;DHT22;2290;48.674;9.018;2023-07-22T07:39:05;19.20;99.90
4556;DHT22;2290;48.674;9.018;2023-07-22T07:41:32;19.30;99.90
4556;DHT22;2290;48.674;9.018;2023-07-22T07:43:58;19.40;99.90
4556;DHT22;2290;48.674;9.018;2023-07-22T07:46:28;19.40;99.90
4556;DHT22;2290;48.674;9.018;2023-07-22T07:48:56;19.40;99.90
4556;DHT22;2290;48.674;9.018;2023-07-22T07:51:24;19.50;99.90
4556;DHT22;2290;48.674;9.018;2023-07-22T07:53:50;19.70;99.90
4556;DHT22;2290;48.674;9.018;2023-07-22T07:56:18;19.60;99.90
4556;DHT22;2290;48.674;9.018;2023-07-22T07:58:48;19.60;99.90
4556;DHT22;2290;48.674;9.018;2023-07-22T08:01:14;19.70;99.90
4556;DHT22;2290;48.674;9.018;2023-07-22T08:03:42;19.80;99.90
4556;DHT22;2290;48.674;9.018;2023-07-22T08:06:08;19.90;99.90
4556;DHT22;2290;48.674;9.018;2023-07-22T08:08:35;20.00;99.90
4556;DHT22;2290;48.674;9.018;2023-07-22T08:11:06;20.20;99.90
4556;DHT22;2290;48.674;9.018;2023-07-22T08:13:32;20.30;99.90
4556;DHT22;2290;48.674;9.018;2023-07-22T08:15:59;20.40;99.90
4556;DHT22;2290;48.674;9.018;2023-07-22T08:18:25;20.50;99.90
4556;DHT22;2290;48.674;9.018;2023-07-22T08:20:53;20.50;99.90
4556;DHT22;2290;48.674;9.018;2023-07-22T08:23:20;20.60;99.90
4556;DHT22;2290;48.674;9.018;2023-07-22T08:25:48;20.70;99.90
4556;DHT22;2290;48.674;9.018;2023-07-22T08:28:15;20.90;99.90
4556;DHT22;2290;48.674;9.018;2023-07-22T08:30:42;21.00;99.90
4556;DHT22;2290;48.674;9.018;2023-07-22T08:33:09;20.80;99.90
4556;DHT22;2290;48.674;9.018;2023-07-22T08:35:35;20.90;99.90
4556;DHT22;2290;48.674;9.018;2023-07-22T08:38:02;21.00;99.90
4556;DHT22;2290;48.674;9.018;2023-07-22T08:40:37;21.00;99.90
4556;DHT22;2290;48.674;9.018;2023-07-22T08:43:05;21.10;99.90
4556;DHT22;2290;48.674;9.018;2023-07-22T08:45:33;21.30;99.90
4556;DHT22;2290;48.674;9.018;2023-07-22T08:48:03;21.30;99.90
4556;DHT22;2290;48.674;9.018;2023-07-22T08:53:05;21.60;99.80
4556;DHT22;2290;48.674;9.018;2023-07-22T08:55:31;21.80;98.70
4556;DHT22;2290;48.674;9.018;2023-07-22T08:57:57;21.80;98.60
4556;DHT22;2290;48.674;9.018;2023-07-22T09:00:24;21.80;98.80
4556;DHT22;2290;48.674;9.018;2023-07-22T09:02:50;21.70;98.70
4556;DHT22;2290;48.674;9.018;2023-07-22T09:05:16;21.70;98.00
4556;DHT22;2290;48.674;9.018;2023-07-22T09:07:42;21.70;98.40
4556;DHT22;2290;48.674;9.018;2023-07-22T09:10:09;21.80;97.40
4556;DHT22;2290;48.674;9.018;2023-07-22T09:12:35;21.80;96.70
4556;DHT22;2290;48.674;9.018;2023-07-22T09:15:12;21.80;97.30
4556;DHT22;2290;48.674;9.018;2023-07-22T09:17:41;21.80;97.30
4556;DHT22;2290;48.674;9.018;2023-07-22T09:20:07;21.90;97.50
4556;DHT22;2290;48.674;9.018;2023-07-22T09:22:34;22.00;97.50
4556;DHT22;2290;48.674;9.018;2023-07-22T09:25:19;22.00;97.10
4556;DHT22;2290;48.674;9.018;2023-07-22T09:27:49;22.00;96.60
4556;DHT22;2290;48.674;9.018;2023-07-22T09:30:29;22.00;96.70
4556;DHT22;2290;48.674;9.018;2023-07-22T09:32:57;22.10;97.00
4556;DHT22;2290;48.674;9.018;2023-07-22T09:35:28;22.20;96.40
4556;DHT22;2290;48.674;9.018;2023-07-22T09:37:54;22.00;95.70
4556;DHT22;2290;48.674;9.018;2023-07-22T09:42:49;21.90;95.80
4556;DHT22;2290;48.674;9.018;2023-07-22T09:45:15;21.80;95.50
4556;DHT22;2290;48.674;9.018;2023-07-22T09:47:46;21.90;95.90
4556;DHT22;2290;48.674;9.018;2023-07-22T09:52:48;22.00;96.50
4556;DHT22;2290;48.674;9.018;2023-07-22T09:55:18;21.90;96.30
4556;DHT22;2290;48.674;9.018;2023-07-22T09:57:46;22.10;96.80
4556;DHT22;2290;48.674;9.018;2023-07-22T10:00:14;22.40;96.40
4556;DHT22;2290;48.674;9.018;2023-07-22T10:02:41;22.60;95.50
4556;DHT22;2290;48.674;9.018;2023-07-22T10:05:15;22.80;94.90
4556;DHT22;2290;48.674;9.018;2023-07-22T10:08:11;22.90;95.00
4556;DHT22;2290;48.674;9.018;2023-07-22T10:10:38;22.80;94.90
4556;DHT22;2290;48.674;9.018;2023-07-22T10:13:04;22.70;95.40
4556;DHT22;2290;48.674;9.018;2023-07-22T10:15:33;22.60;95.90
4556;DHT22;2290;48.674;9.018;2023-07-22T10:18:02;22.50;95.50
4556;DHT22;2290;48.674;9.018;2023-07-22T10:20:29;22.40;95.90
4556;DHT22;2290;48.674;9.018;2023-07-22T10:22:57;22.40;95.70
4556;DHT22;2290;48.674;9.018;2023-07-22T10:25:23;22.30;95.80
4556;DHT22;2290;48.674;9.018;2023-07-22T10:27:51;22.40;96.60
4556;DHT22;2290;48.674;9.018;2023-07-22T10:30:18;22.40;95.30
4556;DHT22;2290;48.674;9.018;2023-07-22T10:32:48;22.40;96.00
4556;DHT22;2290;48.674;9.018;2023-07-22T10:35:39;22.50;95.70
4556;DHT22;2290;48.674;9.018;2023-07-22T10:38:11;22.90;96.00
4556;DHT22;2290;48.674;9.018;2023-07-22T10:40:47;23.20;95.70
4556;DHT22;2290;48.674;9.018;2023-07-22T10:43:24;23.50;95.00
4556;DHT22;2290;48.674;9.018;2023-07-22T10:45:52;23.50;95.70
4556;DHT22;2290;48.674;9.018;2023-07-22T10:48:18;23.30;94.50
4556;DHT22;2290;48.674;9.018;2023-07-22T10:50:48;23.20;94.60
4556;DHT22;2290;48.674;9.018;2023-07-22T11:01:36;22.90;95.50
4556;DHT22;2290;48.674;9.018;2023-07-22T11:12:18;22.80;96.00
4556;DHT22;2290;48.674;9.018;2023-07-22T11:14:47;22.70;96.80
4556;DHT22;2290;48.674;9.018;2023-07-22T11:17:13;22.70;95.70
4556;DHT22;2290;48.674;9.018;2023-07-22T11:19:39;22.70;96.30
4556;DHT22;2290;48.674;9.018;2023-07-22T11:22:05;22.60;96.30
4556;DHT22;2290;48.674;9.018;2023-07-22T11:24:33;22.70;96.40
4556;DHT22;2290;48.674;9.018;2023-07-22T11:26:59;22.80;96.10
4556;DHT22;2290;48.674;9.018;2023-07-22T11:29:25;22.90;96.20
4556;DHT22;2290;48.674;9.018;2023-07-22T11:31:51;23.20;96.40
4556;DHT22;2290;48.674;9.018;2023-07-22T11:34:22;23.50;96.50
4556;DHT22;2290;48.674;9.018;2023-07-22T11:36:49;23.70;95.00
4556;DHT22;2290;48.674;9.018;2023-07-22T11:39:17;24.00;94.30
4556;DHT22;2290;48.674;9.018;2023-07-22T11:41:43;24.20;93.10
4556;DHT22;2290;48.674;9.018;2023-07-22T11:44:14;24.20;93.30
4556;DHT22;2290;48.674;9.018;2023-07-22T11:49:13;24.00;93.50
4556;DHT22;2290;48.674;9.018;2023-07-22T11:51:46;24.20;93.50
4556;DHT22;2290;48.674;9.018;2023-07-22T11:54:12;24.20;93.70
4556;DHT22;2290;48.674;9.018;2023-07-22T11:56:39;24.40;93.70
4556;DHT22;2290;48.674;9.018;2023-07-22T11:59:05;24.60;93.60
4556;DHT22;2290;48.674;9.018;2023-07-22T12:01:33;24.80;93.70
4556;DHT22;2290;48.674;9.018;2023-07-22T12:03:59;25.00;93.70
4556;DHT22;2290;48.674;9.018;2023-07-22T12:06:26;25.00;93.60
4556;DHT22;2290;48.674;9.018;2023-07-22T12:08:52;24.90;92.40
4556;DHT22;2290;48.674;9.018;2023-07-22T12:11:19;24.70;92.30
4556;DHT22;2290;48.674;9.018;2023-07-22T12:13:45;24.70;92.40
4556;DHT22;2290;48.674;9.018;2023-07-22T12:16:12;24.60;92.20
4556;DHT22;2290;48.674;9.018;2023-07-22T12:18:46;24.40;92.40
4556;DHT22;2290;48.674;9.018;2023-07-22T12:21:12;24.20;93.20
4556;DHT22;2290;48.674;9.018;2023-07-22T12:23:40;24.00;93.10
4556;DHT22;2290;48.674;9.018;2023-07-22T12:26:07;23.90;92.10
4556;DHT22;2290;48.674;9.018;2023-07-22T12:28:33;23.90;92.70
4556;DHT22;2290;48.674;9.018;2023-07-22T12:30:59;24.10;93.40
4556;DHT22;2290;48.674;9.018;2023-07-22T12:33:25;24.60;93.20
4556;DHT22;2290;48.674;9.018;2023-07-22T12:35:54;25.10;93.40
4556;DHT22;2290;48.674;9.018;2023-07-22T12:38:20;25.40;92.00
4556;DHT22;2290;48.674;9.018;2023-07-22T12:40:47;25.40;91.10
4556;DHT22;2290;48.674;9.018;2023-07-22T12:43:14;25.60;91.30
4556;DHT22;2290;48.674;9.018;2023-07-22T12:45:40;25.90;91.10
4556;DHT22;2290;48.674;9.018;2023-07-22T12:48:07;26.10;91.00
4556;DHT22;2290;48.674;9.018;2023-07-22T12:50:34;26.40;90.80
4556;DHT22;2290;48.674;9.018;2023-07-22T12:52:59;26.50;90.40
4556;DHT22;2290;48.674;9.018;2023-07-22T12:55:26;26.40;89.40
4556;DHT22;2290;48.674;9.018;2023-07-22T12:57:52;26.20;89.40
4556;DHT22;2290;48.674;9.018;2023-07-22T13:00:18;26.30;89.00
4556;DHT22;2290;48.674;9.018;2023-07-22T13:02:44;26.40;89.40
4556;DHT22;2290;48.674;9.018;2023-07-22T13:05:10;26.80;89.50
4556;DHT22;2290;48.674;9.018;2023-07-22T13:07:36;27.00;86.70
4556;DHT22;2290;48.674;9.018;2023-07-22T13:10:05;27.20;86.20
4556;DHT22;2290;48.674;9.018;2023-07-22T13:12:36;26.80;86.60
4556;DHT22;2290;48.674;9.018;2023-07-22T13:15:02;26.50;86.30
4556;DHT22;2290;48.674;9.018;2023-07-22T13:17:28;26.40;87.10
4556;DHT22;2290;48.674;9.018;2023-07-22T13:19:56;26.10;85.90
4556;DHT22;2290;48.674;9.018;2023-07-22T13:22:22;26.30;86.80
4556;DHT22;2290;48.674;9.018;2023-07-22T13:24:47;26.40;86.80
4556;DHT22;2290;48.674;9.018;2023-07-22T13:27:14;26.50;87.70
4556;DHT22;2290;48.674;9.018;2023-07-22T13:29:41;26.20;86.00
4556;DHT22;2290;48.674;9.018;2023-07-22T13:32:08;26.20;86.50
4556;DHT22;2290;48.674;9.018;2023-07-22T13:34:34;26.30;87.00
4556;DHT22;2290;48.674;9.018;2023-07-22T13:37:01;26.30;86.50
4556;DHT22;2290;48.674;9.018;2023-07-22T13:39:28;26.40;86.60
4556;DHT22;2290;48.674;9.018;2023-07-22T13:41:55;26.50;85.20
4556;DHT22;2290;48.674;9.018;2023-07-22T13:44:20;26.70;85.80
4556;DHT22;2290;48.674;9.018;2023-07-22T13:46:47;26.80;85.40
4556;DHT22;2290;48.674;9.018;2023-07-22T13:49:14;26.90;83.90
4556;DHT22;2290;48.674;9.018;2023-07-22T13:51:41;26.80;85.20
4556;DHT22;2290;48.674;9.018;2023-07-22T13:54:07;26.80;85.10
4556;DHT22;2290;48.674;9.018;2023-07-22T13:56:33;26.60;84.10
4556;DHT22;2290;48.674;9.018;2023-07-22T13:59:01;26.40;84.90
4556;DHT22;2290;48.674;9.018;2023-07-22T14:01:29;26.30;85.30
4556;DHT22;2290;48.674;9.018;2023-07-22T14:03:54;26.40;85.30
4556;DHT22;2290;48.674;9.018;2023-07-22T14:06:20;26.20;83.20
4556;DHT22;2290;48.674;9.018;2023-07-22T14:08:46;25.80;84.10
4556;DHT22;2290;48.674;9.018;2023-07-22T14:11:12;25.40;86.20
4556;DHT22;2290;48.674;9.018;2023-07-22T14:13:38;25.10;87.30
4556;DHT22;2290;48.674;9.018;2023-07-22T14:16:03;25.20;86.90
4556;DHT22;2290;48.674;9.018;2023-07-22T14:18:29;25.40;86.10
4556;DHT22;2290;48.674;9.018;2023-07-22T14:20:55;25.60;84.70
4556;DHT22;2290;48.674;9.018;2023-07-22T14:23:20;25.60;84.40
4556;DHT22;2290;48.674;9.018;2023-07-22T14:25:47;25.60;86.30
4556;DHT22;2290;48.674;9.018;2023-07-22T14:28:14;25.70;86.40
4556;DHT22;2290;48.674;9.018;2023-07-22T14:30:40;25.90;86.20
4556;DHT22;2290;48.674;9.018;2023-07-22T14:33:05;26.00;87.10
4556;DHT22;2290;48.674;9.018;2023-07-22T14:35:31;26.30;85.40
4556;DHT22;2290;48.674;9.018;2023-07-22T14:37:59;26.40;85.10
4556;DHT22;2290;48.674;9.018;2023-07-22T14:40:29;26.40;84.50
4556;DHT22;2290;48.674;9.018;2023-07-22T14:42:56;26.20;83.80
4556;DHT22;2290;48.674;9.018;2023-07-22T14:45:21;26.10;84.60
4556;DHT22;2290;48.674;9.018;2023-07-22T14:47:47;26.10;83.40
4556;DHT22;2290;48.674;9.018;2023-07-22T14:50:14;25.90;84.20
4556;DHT22;2290;48.674;9.018;2023-07-22T14:52:40;25.60;84.70
4556;DHT22;2290;48.674;9.018;2023-07-22T14:55:09;25.50;85.40
4556;DHT22;2290;48.674;9.018;2023-07-22T14:57:36;25.50;86.00
4556;DHT22;2290;48.674;9.018;2023-07-22T15:00:03;25.40;85.20
4556;DHT22;2290;48.674;9.018;2023-07-22T15:02:28;25.10;85.20
4556;DHT22;2290;48.674;9.018;2023-07-22T15:04:56;24.90;85.60
4556;DHT22;2290;48.674;9.018;2023-07-22T15:07:22;24.80;85.90
4556;DHT22;2290;48.674;9.018;2023-07-22T15:09:51;24.80;86.30
4556;DHT22;2290;48.674;9.018;2023-07-22T15:12:20;24.80;86.40
4556;DHT22;2290;48.674;9.018;2023-07-22T15:14:47;24.80;86.70
4556;DHT22;2290;48.674;9.018;2023-07-22T15:17:13;24.90;87.30
4556;DHT22;2290;48.674;9.018;2023-07-22T15:19:39;24.90;86.30
4556;DHT22;2290;48.674;9.018;2023-07-22T15:22:05;24.90;86.20
4556;DHT22;2290;48.674;9.018;2023-07-22T15:24:31;24.80;86.50
4556;DHT22;2290;48.674;9.018;2023-07-22T15:26:57;24.80;87.70
4556;DHT22;2290;48.674;9.018;2023-07-22T15:29:24;24.80;86.90
4556;DHT22;2290;48.674;9.018;2023-07-22T15:31:50;24.70;87.90
4556;DHT22;2290;48.674;9.018;2023-07-22T15:34:15;24.70;87.20
4556;DHT22;2290;48.674;9.018;2023-07-22T15:36:41;24.70;87.70
4556;DHT22;2290;48.674;9.018;2023-07-22T15:39:07;24.70;87.40
4556;DHT22;2290;48.674;9.018;2023-07-22T15:41:35;24.70;86.90
4556;DHT22;2290;48.674;9.018;2023-07-22T15:44:00;24.60;86.20
4556;DHT22;2290;48.674;9.018;2023-07-22T15:46:26;24.60;86.50
4556;DHT22;2290;48.674;9.018;2023-07-22T15:48:51;24.60;86.50
4556;DHT22;2290;48.674;9.018;2023-07-22T15:51:17;24.60;86.60
4556;DHT22;2290;48.674;9.018;2023-07-22T15:53:44;24.80;87.30
4556;DHT22;2290;48.674;9.018;2023-07-22T15:56:09;25.00;87.40
4556;DHT22;2290;48.674;9.018;2023-07-22T15:58:35;25.00;85.20
4556;DHT22;2290;48.674;9.018;2023-07-22T16:01:01;24.90;85.50
4556;DHT22;2290;48.674;9.018;2023-07-22T16:03:26;25.00;85.60
4556;DHT22;2290;48.674;9.018;2023-07-22T16:05:52;25.00;85.50
4556;DHT22;2290;48.674;9.018;2023-07-22T16:08:17;24.90;85.80
4556;DHT22;2290;48.674;9.018;2023-07-22T16:10:43;25.00;86.00
4556;DHT22;2290;48.674;9.018;2023-07-22T16:13:08;25.00;86.00
4556;DHT22;2290;48.674;9.018;2023-07-22T16:15:35;25.20;84.40
4556;DHT22;2290;48.674;9.018;2023-07-22T16:18:00;25.40;84.20
4556;DHT22;2290;48.674;9.018;2023-07-22T16:20:26;25.60;85.10
4556;DHT22;2290;48.674;9.018;2023-07-22T16:22:51;25.90;85.30
4556;DHT22;2290;48.674;9.018;2023-07-22T16:25:17;26.00;85.50